sensor_id;sensor_type;location;lat;lon;timestamp;P1;durP1;ratioP1;P2;durP2;ratioP2
10661;SDS011;5379;51.034;7.006;2024-02-28T00:00:42;24.47;;;17.87;;
10661;SDS011;5379;51.034;7.006;2024-02-28T00:03:09;34.43;;;21.13;;
10661;SDS011;5379;51.034;7.006;2024-02-28T00:05:36;31.63;;;20.87;;
10661;SDS011;5379;51.034;7.006;2024-02-28T00:08:03;33.10;;;19.63;;
10661;SDS011;5379;51.034;7.006;2024-02-28T00:10:31;33.57;;;21.77;;
10661;SDS011;5379;51.034;7.006;2024-02-28T00:12:58;27.13;;;19.77;;
10661;SDS011;5379;51.034;7.006;2024-02-28T00:15:26;24.67;;;19.07;;
10661;SDS011;5379;51.034;7.006;2024-02-28T00:17:54;28.23;;;20.87;;
10661;SDS011;5379;51.034;7.006;2024-02-28T00:20:21;26.97;;;19.60;;
10661;SDS011;5379;51.034;7.006;2024-02-28T00:22:49;31.90;;;20.60;;
10661;SDS011;5379;51.034;7.006;2024-02-28T00:25:15;29.60;;;20.23;;
10661;SDS011;5379;51.034;7.006;2024-02-28T00:27:42;35.43;;;21.70;;
10661;SDS011;5379;51.034;7.006;2024-02-28T00:30:09;24.37;;;19.03;;
10661;SDS011;5379;51.034;7.006;2024-02-28T00:32:36;25.73;;;19.70;;
10661;SDS011;5379;51.034;7.006;2024-02-28T00:35:05;26.47;;;19.20;;
10661;SDS011;5379;51.034;7.006;2024-02-28T00:37:32;27.70;;;19.30;;
10661;SDS011;5379;51.034;7.006;2024-02-28T00:39:59;23.53;;;18.67;;
10661;SDS011;5379;51.034;7.006;2024-02-28T00:42:26;28.57;;;20.43;;
10661;SDS011;5379;51.034;7.006;2024-02-28T00:44:53;37.10;;;20.93;;
10661;SDS011;5379;51.034;7.006;2024-02-28T00:47:20;27.87;;;19.63;;
10661;SDS011;5379;51.034;7.006;2024-02-28T00:49:46;31.73;;;19.87;;
10661;SDS011;5379;51.034;7.006;2024-02-28T00:52:15;32.97;;;20.00;;
10661;SDS011;5379;51.034;7.006;2024-02-28T00:54:41;26.50;;;20.53;;
10661;SDS011;5379;51.034;7.006;2024-02-28T00:57:08;28.93;;;19.83;;
10661;SDS011;5379;51.034;7.006;2024-02-28T00:59:35;29.67;;;20.53;;
10661;SDS011;5379;51.034;7.006;2024-02-28T05:32:24;46.20;;;31.43;;
10661;SDS011;5379;51.034;7.006;2024-02-28T05:34:51;57.97;;;32.83;;
10661;SDS011;5379;51.034;7.006;2024-02-28T05:37:18;54.07;;;35.40;;
10661;SDS011;5379;51.034;7.006;2024-02-28T05:39:45;49.20;;;34.57;;
10661;SDS011;5379;51.034;7.006;2024-02-28T05:42:12;57.63;;;34.43;;
10661;SDS011;5379;51.034;7.006;2024-02-28T05:44:42;53.40;;;34.93;;
10661;SDS011;5379;51.034;7.006;2024-02-28T05:47:10;52.17;;;35.90;;
10661;SDS011;5379;51.034;7.006;2024-02-28T05:49:38;60.33;;;37.03;;
10661;SDS011;5379;51.034;7.006;2024-02-28T05:52:05;58.47;;;38.20;;
10661;SDS011;5379;51.034;7.006;2024-02-28T05:54:33;51.83;;;34.70;;
10661;SDS011;5379;51.034;7.006;2024-02-28T05:57:00;46.50;;;33.13;;
10661;SDS011;5379;51.034;7.006;2024-02-28T05:59:27;49.43;;;33.27;;
10661;SDS011;5379;51.034;7.006;2024-02-28T06:01:54;51.63;;;34.47;;
10661;SDS011;5379;51.034;7.006;2024-02-28T06:04:21;47.37;;;33.77;;
10661;SDS011;5379;51.034;7.006;2024-02-28T06:06:50;54.33;;;33.43;;
10661;SDS011;5379;51.034;7.006;2024-02-28T06:09:16;45.50;;;32.80;;
10661;SDS011;5379;51.034;7.006;2024-02-28T06:11:43;48.70;;;34.43;;
10661;SDS011;5379;51.034;7.006;2024-02-28T06:14:11;48.27;;;34.70;;
10661;SDS011;5379;51.034;7.006;2024-02-28T06:16:38;51.23;;;33.37;;
10661;SDS011;5379;51.034;7.006;2024-02-28T06:19:05;52.00;;;33.60;;
10661;SDS011;5379;51.034;7.006;2024-02-28T06:21:32;53.73;;;33.77;;
10661;SDS011;5379;51.034;7.006;2024-02-28T06:24:00;51.33;;;34.17;;
10661;SDS011;5379;51.034;7.006;2024-02-28T06:26:28;58.00;;;34.30;;
10661;SDS011;5379;51.034;7.006;2024-02-28T06:28:56;54.27;;;35.70;;
10661;SDS011;5379;51.034;7.006;2024-02-28T06:31:26;43.87;;;32.13;;
10661;SDS011;5379;51.034;7.006;2024-02-28T06:33:54;50.83;;;33.67;;
10661;SDS011;5379;51.034;7.006;2024-02-28T06:36:21;50.17;;;33.60;;
10661;SDS011;5379;51.034;7.006;2024-02-28T06:38:49;55.20;;;36.50;;
10661;SDS011;5379;51.034;7.006;2024-02-28T06:41:17;52.47;;;32.43;;
10661;SDS011;5379;51.034;7.006;2024-02-28T06:43:44;46.97;;;32.83;;
10661;SDS011;5379;51.034;7.006;2024-02-28T06:46:11;46.43;;;32.47;;
10661;SDS011;5379;51.034;7.006;2024-02-28T06:48:38;47.77;;;32.17;;
10661;SDS011;5379;51.034;7.006;2024-02-28T06:51:05;53.13;;;32.57;;
10661;SDS011;5379;51.034;7.006;2024-02-28T06:53:33;47.83;;;32.13;;
10661;SDS011;5379;51.034;7.006;2024-02-28T06:56:00;45.97;;;31.23;;
10661;SDS011;5379;51.034;7.006;2024-02-28T06:58:29;44.87;;;32.67;;
10661;SDS011;5379;51.034;7.006;2024-02-28T07:00:55;42.90;;;30.03;;
10661;SDS011;5379;51.034;7.006;2024-02-28T07:03:23;48.70;;;33.17;;
10661;SDS011;5379;51.034;7.006;2024-02-28T07:05:50;42.73;;;32.23;;
10661;SDS011;5379;51.034;7.006;2024-02-28T07:08:18;49.20;;;32.50;;
10661;SDS011;5379;51.034;7.006;2024-02-28T07:10:46;44.10;;;31.40;;
10661;SDS011;5379;51.034;7.006;2024-02-28T07:13:14;47.20;;;31.73;;
10661;SDS011;5379;51.034;7.006;2024-02-28T07:15:43;46.33;;;31.20;;
10661;SDS011;5379;51.034;7.006;2024-02-28T07:18:09;48.10;;;32.07;;
10661;SDS011;5379;51.034;7.006;2024-02-28T07:20:36;47.43;;;30.97;;
10661;SDS011;5379;51.034;7.006;2024-02-28T07:23:04;50.87;;;32.10;;
10661;SDS011;5379;51.034;7.006;2024-02-28T07:25:31;53.03;;;32.63;;
10661;SDS011;5379;51.034;7.006;2024-02-28T07:27:58;51.10;;;32.67;;
10661;SDS011;5379;51.034;7.006;2024-02-28T07:30:26;49.87;;;31.03;;
10661;SDS011;5379;51.034;7.006;2024-02-28T07:32:54;56.10;;;34.93;;
10661;SDS011;5379;51.034;7.006;2024-02-28T07:35:21;50.40;;;32.20;;
10661;SDS011;5379;51.034;7.006;2024-02-28T07:37:49;46.30;;;32.77;;
10661;SDS011;5379;51.034;7.006;2024-02-28T07:40:16;50.10;;;31.80;;
10661;SDS011;5379;51.034;7.006;2024-02-28T07:42:43;48.73;;;32.17;;
10661;SDS011;5379;51.034;7.006;2024-02-28T07:45:10;42.70;;;29.93;;
10661;SDS011;5379;51.034;7.006;2024-02-28T07:47:37;38.67;;;28.70;;
10661;SDS011;5379;51.034;7.006;2024-02-28T07:50:07;60.87;;;31.17;;
10661;SDS011;5379;51.034;7.006;2024-02-28T07:52:34;49.63;;;30.37;;
10661;SDS011;5379;51.034;7.006;2024-02-28T07:55:02;44.63;;;30.33;;
10661;SDS011;5379;51.034;7.006;2024-02-28T07:57:30;50.67;;;32.27;;
10661;SDS011;5379;51.034;7.006;2024-02-28T07:59:58;42.83;;;31.10;;
10661;SDS011;5379;51.034;7.006;2024-02-28T08:02:25;44.80;;;30.80;;
10661;SDS011;5379;51.034;7.006;2024-02-28T08:04:53;42.93;;;32.73;;
10661;SDS011;5379;51.034;7.006;2024-02-28T08:07:21;43.53;;;31.23;;
10661;SDS011;5379;51.034;7.006;2024-02-28T08:09:48;49.20;;;32.43;;
10661;SDS011;5379;51.034;7.006;2024-02-28T08:12:15;48.57;;;31.90;;
10661;SDS011;5379;51.034;7.006;2024-02-28T08:14:42;46.57;;;31.93;;
10661;SDS011;5379;51.034;7.006;2024-02-28T08:17:10;48.63;;;31.83;;
10661;SDS011;5379;51.034;7.006;2024-02-28T08:19:40;54.07;;;32.87;;
10661;SDS011;5379;51.034;7.006;2024-02-28T08:22:07;48.63;;;29.23;;
10661;SDS011;5379;51.034;7.006;2024-02-28T08:24:37;45.03;;;32.03;;
10661;SDS011;5379;51.034;7.006;2024-02-28T08:27:03;46.47;;;31.67;;
10661;SDS011;5379;51.034;7.006;2024-02-28T08:29:30;57.80;;;33.53;;
10661;SDS011;5379;51.034;7.006;2024-02-28T08:32:00;53.60;;;31.80;;
10661;SDS011;5379;51.034;7.006;2024-02-28T08:34:28;42.10;;;28.97;;
10661;SDS011;5379;51.034;7.006;2024-02-28T08:36:55;40.07;;;29.50;;
10661;SDS011;5379;51.034;7.006;2024-02-28T08:39:22;54.13;;;30.80;;
10661;SDS011;5379;51.034;7.006;2024-02-28T08:41:51;38.17;;;28.77;;
10661;SDS011;5379;51.034;7.006;2024-02-28T08:44:18;44.77;;;29.37;;
10661;SDS011;5379;51.034;7.006;2024-02-28T08:46:46;43.20;;;28.77;;
10661;SDS011;5379;51.034;7.006;2024-02-28T08:49:13;46.53;;;29.13;;
10661;SDS011;5379;51.034;7.006;2024-02-28T08:51:40;38.37;;;26.77;;
10661;SDS011;5379;51.034;7.006;2024-02-28T08:54:07;41.30;;;28.23;;
10661;SDS011;5379;51.034;7.006;2024-02-28T08:56:34;44.90;;;28.70;;
10661;SDS011;5379;51.034;7.006;2024-02-28T08:59:03;39.67;;;27.60;;
10661;SDS011;5379;51.034;7.006;2024-02-28T09:01:30;38.30;;;26.97;;
10661;SDS011;5379;51.034;7.006;2024-02-28T09:03:58;45.20;;;28.70;;
10661;SDS011;5379;51.034;7.006;2024-02-28T09:06:25;44.93;;;28.90;;
10661;SDS011;5379;51.034;7.006;2024-02-28T09:08:53;46.00;;;28.20;;
10661;SDS011;5379;51.034;7.006;2024-02-28T09:11:20;38.47;;;28.73;;
10661;SDS011;5379;51.034;7.006;2024-02-28T09:13:47;41.17;;;27.67;;
10661;SDS011;5379;51.034;7.006;2024-02-28T09:16:15;42.00;;;27.93;;
10661;SDS011;5379;51.034;7.006;2024-02-28T09:18:42;43.23;;;29.33;;
10661;SDS011;5379;51.034;7.006;2024-02-28T09:21:09;41.07;;;28.07;;
10661;SDS011;5379;51.034;7.006;2024-02-28T09:23:36;39.37;;;26.00;;
10661;SDS011;5379;51.034;7.006;2024-02-28T09:26:03;40.97;;;26.17;;
10661;SDS011;5379;51.034;7.006;2024-02-28T09:28:31;36.53;;;25.97;;
10661;SDS011;5379;51.034;7.006;2024-02-28T09:30:57;32.17;;;24.73;;
10661;SDS011;5379;51.034;7.006;2024-02-28T09:33:26;32.70;;;23.43;;
10661;SDS011;5379;51.034;7.006;2024-02-28T09:35:53;39.00;;;24.63;;
10661;SDS011;5379;51.034;7.006;2024-02-28T09:38:20;38.07;;;25.50;;
10661;SDS011;5379;51.034;7.006;2024-02-28T09:40:47;36.13;;;24.57;;
10661;SDS011;5379;51.034;7.006;2024-02-28T09:43:15;34.70;;;24.60;;
10661;SDS011;5379;51.034;7.006;2024-02-28T09:45:49;39.10;;;25.77;;
10661;SDS011;5379;51.034;7.006;2024-02-28T09:48:16;39.20;;;24.30;;
10661;SDS011;5379;51.034;7.006;2024-02-28T09:50:46;41.27;;;24.67;;
10661;SDS011;5379;51.034;7.006;2024-02-28T09:53:13;30.83;;;23.20;;
10661;SDS011;5379;51.034;7.006;2024-02-28T09:55:40;38.00;;;24.53;;
10661;SDS011;5379;51.034;7.006;2024-02-28T09:58:07;30.67;;;22.20;;
10661;SDS011;5379;51.034;7.006;2024-02-28T10:00:34;36.37;;;23.17;;
10661;SDS011;5379;51.034;7.006;2024-02-28T10:03:03;29.67;;;23.63;;
10661;SDS011;5379;51.034;7.006;2024-02-28T10:05:32;30.53;;;22.47;;
10661;SDS011;5379;51.034;7.006;2024-02-28T10:08:01;35.70;;;22.93;;
10661;SDS011;5379;51.034;7.006;2024-02-28T10:10:28;33.00;;;23.33;;
10661;SDS011;5379;51.034;7.006;2024-02-28T10:12:55;33.40;;;22.70;;
10661;SDS011;5379;51.034;7.006;2024-02-28T10:15:23;35.67;;;22.93;;
10661;SDS011;5379;51.034;7.006;2024-02-28T10:17:52;36.30;;;22.50;;
10661;SDS011;5379;51.034;7.006;2024-02-28T10:20:19;35.53;;;23.27;;
10661;SDS011;5379;51.034;7.006;2024-02-28T10:22:46;26.33;;;21.13;;
10661;SDS011;5379;51.034;7.006;2024-02-28T10:25:14;26.50;;;19.50;;
10661;SDS011;5379;51.034;7.006;2024-02-28T10:27:42;29.47;;;20.53;;
10661;SDS011;5379;51.034;7.006;2024-02-28T10:30:09;28.30;;;21.40;;
10661;SDS011;5379;51.034;7.006;2024-02-28T10:32:36;35.43;;;22.43;;
10661;SDS011;5379;51.034;7.006;2024-02-28T10:35:14;26.50;;;21.57;;
10661;SDS011;5379;51.034;7.006;2024-02-28T10:37:43;35.67;;;22.03;;
10661;SDS011;5379;51.034;7.006;2024-02-28T10:40:11;32.13;;;20.40;;
10661;SDS011;5379;51.034;7.006;2024-02-28T10:42:41;31.33;;;20.00;;
10661;SDS011;5379;51.034;7.006;2024-02-28T10:45:09;27.67;;;20.10;;
10661;SDS011;5379;51.034;7.006;2024-02-28T10:47:37;31.23;;;22.03;;
10661;SDS011;5379;51.034;7.006;2024-02-28T10:50:05;26.30;;;20.40;;
10661;SDS011;5379;51.034;7.006;2024-02-28T10:52:32;30.80;;;21.03;;
10661;SDS011;5379;51.034;7.006;2024-02-28T10:55:01;23.07;;;18.53;;
10661;SDS011;5379;51.034;7.006;2024-02-28T10:57:31;26.07;;;20.17;;
10661;SDS011;5379;51.034;7.006;2024-02-28T11:00:01;25.60;;;19.20;;
10661;SDS011;5379;51.034;7.006;2024-02-28T11:02:29;28.60;;;19.67;;
10661;SDS011;5379;51.034;7.006;2024-02-28T11:04:57;31.63;;;18.37;;
10661;SDS011;5379;51.034;7.006;2024-02-28T11:07:26;25.93;;;19.10;;
10661;SDS011;5379;51.034;7.006;2024-02-28T11:09:53;31.37;;;20.30;;
10661;SDS011;5379;51.034;7.006;2024-02-28T11:12:24;31.73;;;18.83;;
10661;SDS011;5379;51.034;7.006;2024-02-28T11:14:57;28.20;;;19.97;;
10661;SDS011;5379;51.034;7.006;2024-02-28T11:17:26;25.10;;;17.93;;
10661;SDS011;5379;51.034;7.006;2024-02-28T11:19:53;22.70;;;17.10;;
10661;SDS011;5379;51.034;7.006;2024-02-28T11:22:21;22.63;;;17.27;;
10661;SDS011;5379;51.034;7.006;2024-02-28T11:24:48;19.63;;;17.53;;
10661;SDS011;5379;51.034;7.006;2024-02-28T11:27:15;29.30;;;19.43;;
10661;SDS011;5379;51.034;7.006;2024-02-28T11:29:42;28.63;;;20.13;;
10661;SDS011;5379;51.034;7.006;2024-02-28T11:32:13;37.93;;;19.63;;
10661;SDS011;5379;51.034;7.006;2024-02-28T11:34:40;25.97;;;20.13;;
10661;SDS011;5379;51.034;7.006;2024-02-28T11:37:09;16.47;;;14.77;;
10661;SDS011;5379;51.034;7.006;2024-02-28T11:39:35;18.13;;;13.97;;
10661;SDS011;5379;51.034;7.006;2024-02-28T11:42:09;21.83;;;15.77;;
10661;SDS011;5379;51.034;7.006;2024-02-28T11:44:38;16.13;;;14.43;;
10661;SDS011;5379;51.034;7.006;2024-02-28T11:47:05;25.50;;;17.83;;
10661;SDS011;5379;51.034;7.006;2024-02-28T11:49:33;29.50;;;19.23;;
10661;SDS011;5379;51.034;7.006;2024-02-28T11:52:00;24.87;;;18.87;;
10661;SDS011;5379;51.034;7.006;2024-02-28T11:54:27;28.53;;;19.07;;
10661;SDS011;5379;51.034;7.006;2024-02-28T11:56:54;27.27;;;19.97;;
10661;SDS011;5379;51.034;7.006;2024-02-28T11:59:21;24.23;;;17.90;;
10661;SDS011;5379;51.034;7.006;2024-02-28T12:01:51;28.83;;;19.37;;
10661;SDS011;5379;51.034;7.006;2024-02-28T12:04:20;27.00;;;18.23;;
10661;SDS011;5379;51.034;7.006;2024-02-28T12:06:54;14.57;;;12.50;;
10661;SDS011;5379;51.034;7.006;2024-02-28T12:09:20;18.07;;;13.67;;
10661;SDS011;5379;51.034;7.006;2024-02-28T12:11:47;35.27;;;12.70;;
10661;SDS011;5379;51.034;7.006;2024-02-28T12:14:14;12.83;;;11.53;;
10661;SDS011;5379;51.034;7.006;2024-02-28T12:16:41;19.07;;;13.83;;
10661;SDS011;5379;51.034;7.006;2024-02-28T12:19:09;13.00;;;11.67;;
10661;SDS011;5379;51.034;7.006;2024-02-28T12:21:37;17.40;;;12.90;;
10661;SDS011;5379;51.034;7.006;2024-02-28T12:24:06;16.77;;;11.43;;
10661;SDS011;5379;51.034;7.006;2024-02-28T12:26:34;14.30;;;11.67;;
10661;SDS011;5379;51.034;7.006;2024-02-28T12:29:01;14.07;;;12.67;;
10661;SDS011;5379;51.034;7.006;2024-02-28T12:31:28;17.60;;;13.83;;
10661;SDS011;5379;51.034;7.006;2024-02-28T12:33:55;16.77;;;13.97;;
10661;SDS011;5379;51.034;7.006;2024-02-28T12:36:22;23.63;;;16.13;;
10661;SDS011;5379;51.034;7.006;2024-02-28T12:38:49;22.50;;;15.40;;
10661;SDS011;5379;51.034;7.006;2024-02-28T12:41:18;31.37;;;15.43;;
10661;SDS011;5379;51.034;7.006;2024-02-28T12:43:44;16.97;;;13.70;;
10661;SDS011;5379;51.034;7.006;2024-02-28T12:46:11;23.10;;;15.40;;
10661;SDS011;5379;51.034;7.006;2024-02-28T12:48:38;20.93;;;15.77;;
10661;SDS011;5379;51.034;7.006;2024-02-28T12:51:06;19.70;;;15.03;;
10661;SDS011;5379;51.034;7.006;2024-02-28T12:53:34;20.13;;;14.83;;
10661;SDS011;5379;51.034;7.006;2024-02-28T12:56:01;22.47;;;13.90;;
10661;SDS011;5379;51.034;7.006;2024-02-28T12:58:29;17.93;;;12.73;;
10661;SDS011;5379;51.034;7.006;2024-02-28T13:00:56;17.73;;;14.60;;
10661;SDS011;5379;51.034;7.006;2024-02-28T13:03:23;21.10;;;14.30;;
10661;SDS011;5379;51.034;7.006;2024-02-28T13:05:49;23.20;;;14.43;;
10661;SDS011;5379;51.034;7.006;2024-02-28T13:08:16;19.53;;;14.17;;
10661;SDS011;5379;51.034;7.006;2024-02-28T13:10:43;24.47;;;15.13;;
10661;SDS011;5379;51.034;7.006;2024-02-28T13:13:15;20.43;;;14.70;;
10661;SDS011;5379;51.034;7.006;2024-02-28T13:15:44;19.63;;;13.33;;
10661;SDS011;5379;51.034;7.006;2024-02-28T13:18:16;16.50;;;13.47;;
10661;SDS011;5379;51.034;7.006;2024-02-28T13:20:49;18.10;;;12.73;;
10661;SDS011;5379;51.034;7.006;2024-02-28T13:23:19;16.77;;;13.60;;
10661;SDS011;5379;51.034;7.006;2024-02-28T13:25:46;16.33;;;12.30;;
10661;SDS011;5379;51.034;7.006;2024-02-28T13:28:14;19.33;;;12.17;;
10661;SDS011;5379;51.034;7.006;2024-02-28T13:30:41;15.03;;;11.80;;
10661;SDS011;5379;51.034;7.006;2024-02-28T13:33:09;16.50;;;10.73;;
10661;SDS011;5379;51.034;7.006;2024-02-28T13:35:36;15.60;;;10.10;;
10661;SDS011;5379;51.034;7.006;2024-02-28T13:38:03;12.47;;;9.23;;
10661;SDS011;5379;51.034;7.006;2024-02-28T13:40:33;9.77;;;8.67;;
10661;SDS011;5379;51.034;7.006;2024-02-28T13:43:03;12.97;;;9.83;;
10661;SDS011;5379;51.034;7.006;2024-02-28T13:45:40;15.10;;;9.27;;
10661;SDS011;5379;51.034;7.006;2024-02-28T13:48:30;14.30;;;9.87;;
10661;SDS011;5379;51.034;7.006;2024-02-28T13:51:26;11.90;;;9.13;;
10661;SDS011;5379;51.034;7.006;2024-02-28T14:00:26;13.77;;;10.83;;
10661;SDS011;5379;51.034;7.006;2024-02-28T14:02:53;13.57;;;10.13;;
10661;SDS011;5379;51.034;7.006;2024-02-28T14:05:20;10.73;;;9.47;;
10661;SDS011;5379;51.034;7.006;2024-02-28T14:07:47;9.97;;;8.97;;
10661;SDS011;5379;51.034;7.006;2024-02-28T14:10:14;16.53;;;10.97;;
10661;SDS011;5379;51.034;7.006;2024-02-28T14:12:42;10.60;;;9.40;;
10661;SDS011;5379;51.034;7.006;2024-02-28T14:15:09;11.20;;;9.23;;
10661;SDS011;5379;51.034;7.006;2024-02-28T14:17:37;10.80;;;8.27;;
10661;SDS011;5379;51.034;7.006;2024-02-28T14:20:05;11.20;;;8.97;;
10661;SDS011;5379;51.034;7.006;2024-02-28T14:22:34;12.13;;;9.07;;
10661;SDS011;5379;51.034;7.006;2024-02-28T14:25:00;12.47;;;8.70;;
10661;SDS011;5379;51.034;7.006;2024-02-28T14:27:29;10.60;;;7.63;;
10661;SDS011;5379;51.034;7.006;2024-02-28T14:29:58;13.80;;;8.73;;
10661;SDS011;5379;51.034;7.006;2024-02-28T14:32:24;13.23;;;9.73;;
10661;SDS011;5379;51.034;7.006;2024-02-28T14:34:53;15.23;;;9.73;;
10661;SDS011;5379;51.034;7.006;2024-02-28T14:37:20;9.30;;;7.53;;
10661;SDS011;5379;51.034;7.006;2024-02-28T14:39:47;12.43;;;7.97;;
10661;SDS011;5379;51.034;7.006;2024-02-28T14:42:14;9.47;;;8.07;;
10661;SDS011;5379;51.034;7.006;2024-02-28T14:44:41;10.73;;;8.23;;
10661;SDS011;5379;51.034;7.006;2024-02-28T14:47:07;10.40;;;7.93;;
10661;SDS011;5379;51.034;7.006;2024-02-28T14:49:34;10.60;;;7.77;;
10661;SDS011;5379;51.034;7.006;2024-02-28T14:52:03;17.63;;;10.30;;
10661;SDS011;5379;51.034;7.006;2024-02-28T14:54:30;12.63;;;8.27;;
10661;SDS011;5379;51.034;7.006;2024-02-28T14:56:57;11.47;;;8.00;;
10661;SDS011;5379;51.034;7.006;2024-02-28T14:59:24;13.47;;;8.60;;
10661;SDS011;5379;51.034;7.006;2024-02-28T15:01:51;12.50;;;8.83;;
10661;SDS011;5379;51.034;7.006;2024-02-28T15:04:18;10.47;;;8.13;;
10661;SDS011;5379;51.034;7.006;2024-02-28T15:06:45;12.60;;;8.47;;
10661;SDS011;5379;51.034;7.006;2024-02-28T15:09:13;13.83;;;7.73;;
10661;SDS011;5379;51.034;7.006;2024-02-28T15:11:40;11.43;;;7.70;;
10661;SDS011;5379;51.034;7.006;2024-02-28T15:14:07;12.87;;;7.10;;
10661;SDS011;5379;51.034;7.006;2024-02-28T15:16:34;7.67;;;6.53;;
10661;SDS011;5379;51.034;7.006;2024-02-28T15:19:01;7.03;;;6.33;;
10661;SDS011;5379;51.034;7.006;2024-02-28T15:21:28;10.23;;;7.00;;
10661;SDS011;5379;51.034;7.006;2024-02-28T15:23:55;13.47;;;7.13;;
10661;SDS011;5379;51.034;7.006;2024-02-28T15:26:23;10.37;;;6.97;;
10661;SDS011;5379;51.034;7.006;2024-02-28T15:28:50;11.53;;;8.13;;
10661;SDS011;5379;51.034;7.006;2024-02-28T15:31:17;11.53;;;7.77;;
10661;SDS011;5379;51.034;7.006;2024-02-28T15:33:43;12.17;;;7.77;;
10661;SDS011;5379;51.034;7.006;2024-02-28T15:36:10;11.77;;;8.37;;
10661;SDS011;5379;51.034;7.006;2024-02-28T15:38:37;17.60;;;8.43;;
10661;SDS011;5379;51.034;7.006;2024-02-28T15:41:04;9.37;;;8.13;;
10661;SDS011;5379;51.034;7.006;2024-02-28T15:43:32;12.00;;;7.40;;
10661;SDS011;5379;51.034;7.006;2024-02-28T15:46:00;9.63;;;7.87;;
10661;SDS011;5379;51.034;7.006;2024-02-28T15:48:27;13.97;;;7.33;;
10661;SDS011;5379;51.034;7.006;2024-02-28T15:50:54;11.57;;;8.37;;
10661;SDS011;5379;51.034;7.006;2024-02-28T15:53:21;9.00;;;8.00;;
10661;SDS011;5379;51.034;7.006;2024-02-28T15:55:49;12.23;;;8.83;;
10661;SDS011;5379;51.034;7.006;2024-02-28T15:58:16;11.73;;;8.53;;
10661;SDS011;5379;51.034;7.006;2024-02-28T16:00:44;14.00;;;8.43;;
10661;SDS011;5379;51.034;7.006;2024-02-28T16:03:11;14.80;;;8.47;;
10661;SDS011;5379;51.034;7.006;2024-02-28T16:05:38;18.47;;;8.37;;
10661;SDS011;5379;51.034;7.006;2024-02-28T16:08:05;17.07;;;9.53;;
10661;SDS011;5379;51.034;7.006;2024-02-28T16:10:32;15.77;;;10.10;;
10661;SDS011;5379;51.034;7.006;2024-02-28T16:12:59;15.50;;;9.53;;
10661;SDS011;5379;51.034;7.006;2024-02-28T16:15:28;18.43;;;10.27;;
10661;SDS011;5379;51.034;7.006;2024-02-28T16:17:57;15.20;;;9.77;;
10661;SDS011;5379;51.034;7.006;2024-02-28T16:20:23;13.50;;;9.83;;
10661;SDS011;5379;51.034;7.006;2024-02-28T16:22:50;12.33;;;9.83;;
10661;SDS011;5379;51.034;7.006;2024-02-28T16:25:17;14.27;;;10.60;;
10661;SDS011;5379;51.034;7.006;2024-02-28T16:27:46;18.27;;;10.93;;
10661;SDS011;5379;51.034;7.006;2024-02-28T16:30:13;12.97;;;9.30;;
10661;SDS011;5379;51.034;7.006;2024-02-28T16:32:40;11.70;;;8.53;;
10661;SDS011;5379;51.034;7.006;2024-02-28T16:35:09;13.63;;;10.70;;
10661;SDS011;5379;51.034;7.006;2024-02-28T16:37:36;15.83;;;10.90;;
10661;SDS011;5379;51.034;7.006;2024-02-28T16:40:04;15.50;;;10.03;;
10661;SDS011;5379;51.034;7.006;2024-02-28T16:42:32;16.03;;;11.90;;
10661;SDS011;5379;51.034;7.006;2024-02-28T16:45:00;15.13;;;10.63;;
10661;SDS011;5379;51.034;7.006;2024-02-28T16:47:28;19.03;;;10.57;;
10661;SDS011;5379;51.034;7.006;2024-02-28T16:49:55;13.27;;;10.13;;
10661;SDS011;5379;51.034;7.006;2024-02-28T16:52:23;14.77;;;10.43;;
10661;SDS011;5379;51.034;7.006;2024-02-28T16:54:51;15.73;;;11.23;;
10661;SDS011;5379;51.034;7.006;2024-02-28T16:57:18;15.87;;;10.67;;
10661;SDS011;5379;51.034;7.006;2024-02-28T16:59:45;11.40;;;10.17;;
10661;SDS011;5379;51.034;7.006;2024-02-28T17:02:12;19.70;;;11.33;;
10661;SDS011;5379;51.034;7.006;2024-02-28T17:04:38;13.90;;;10.63;;
10661;SDS011;5379;51.034;7.006;2024-02-28T17:07:06;16.17;;;11.10;;
10661;SDS011;5379;51.034;7.006;2024-02-28T17:09:34;12.37;;;9.80;;
10661;SDS011;5379;51.034;7.006;2024-02-28T17:12:01;15.40;;;10.27;;
10661;SDS011;5379;51.034;7.006;2024-02-28T17:14:27;12.00;;;9.27;;
10661;SDS011;5379;51.034;7.006;2024-02-28T17:16:54;13.80;;;10.40;;
10661;SDS011;5379;51.034;7.006;2024-02-28T17:19:21;14.60;;;10.90;;
10661;SDS011;5379;51.034;7.006;2024-02-28T17:21:48;15.53;;;9.40;;
10661;SDS011;5379;51.034;7.006;2024-02-28T17:24:14;14.07;;;9.53;;
10661;SDS011;5379;51.034;7.006;2024-02-28T17:26:43;12.27;;;9.40;;
10661;SDS011;5379;51.034;7.006;2024-02-28T17:29:09;16.00;;;10.10;;
10661;SDS011;5379;51.034;7.006;2024-02-28T17:31:37;12.87;;;9.63;;
10661;SDS011;5379;51.034;7.006;2024-02-28T17:34:03;15.97;;;11.67;;
10661;SDS011;5379;51.034;7.006;2024-02-28T17:36:31;16.20;;;11.17;;
10661;SDS011;5379;51.034;7.006;2024-02-28T17:38:58;17.87;;;11.67;;
10661;SDS011;5379;51.034;7.006;2024-02-28T17:41:25;14.73;;;10.57;;
10661;SDS011;5379;51.034;7.006;2024-02-28T17:43:54;12.23;;;9.57;;
10661;SDS011;5379;51.034;7.006;2024-02-28T17:46:21;20.30;;;12.67;;
10661;SDS011;5379;51.034;7.006;2024-02-28T17:48:48;15.43;;;11.40;;
10661;SDS011;5379;51.034;7.006;2024-02-28T17:51:15;23.87;;;15.07;;
10661;SDS011;5379;51.034;7.006;2024-02-28T17:53:42;14.83;;;12.30;;
10661;SDS011;5379;51.034;7.006;2024-02-28T17:56:09;19.70;;;12.57;;
10661;SDS011;5379;51.034;7.006;2024-02-28T17:58:36;20.03;;;11.43;;
10661;SDS011;5379;51.034;7.006;2024-02-28T18:01:04;21.10;;;13.00;;
10661;SDS011;5379;51.034;7.006;2024-02-28T18:03:32;17.37;;;13.13;;
10661;SDS011;5379;51.034;7.006;2024-02-28T18:05:59;17.20;;;12.67;;
10661;SDS011;5379;51.034;7.006;2024-02-28T18:08:26;19.23;;;12.47;;
10661;SDS011;5379;51.034;7.006;2024-02-28T18:10:56;19.73;;;12.20;;
10661;SDS011;5379;51.034;7.006;2024-02-28T18:13:23;26.10;;;13.33;;
10661;SDS011;5379;51.034;7.006;2024-02-28T18:15:50;19.67;;;12.13;;
10661;SDS011;5379;51.034;7.006;2024-02-28T18:18:19;20.67;;;13.27;;
10661;SDS011;5379;51.034;7.006;2024-02-28T18:20:46;21.33;;;12.77;;
10661;SDS011;5379;51.034;7.006;2024-02-28T18:23:13;21.00;;;12.60;;
10661;SDS011;5379;51.034;7.006;2024-02-28T18:25:40;13.63;;;11.83;;
10661;SDS011;5379;51.034;7.006;2024-02-28T18:28:06;19.23;;;12.67;;
10661;SDS011;5379;51.034;7.006;2024-02-28T18:30:33;19.33;;;13.00;;
10661;SDS011;5379;51.034;7.006;2024-02-28T18:33:00;18.57;;;12.70;;
10661;SDS011;5379;51.034;7.006;2024-02-28T18:35:28;16.93;;;12.30;;
10661;SDS011;5379;51.034;7.006;2024-02-28T18:37:56;21.37;;;11.97;;
10661;SDS011;5379;51.034;7.006;2024-02-28T18:40:25;20.03;;;13.67;;
10661;SDS011;5379;51.034;7.006;2024-02-28T18:42:52;22.97;;;12.33;;
10661;SDS011;5379;51.034;7.006;2024-02-28T18:45:19;19.73;;;12.20;;
10661;SDS011;5379;51.034;7.006;2024-02-28T18:47:47;20.67;;;11.67;;
10661;SDS011;5379;51.034;7.006;2024-02-28T18:50:14;14.77;;;11.27;;
10661;SDS011;5379;51.034;7.006;2024-02-28T18:52:42;12.17;;;10.87;;
10661;SDS011;5379;51.034;7.006;2024-02-28T18:55:09;18.27;;;12.53;;
10661;SDS011;5379;51.034;7.006;2024-02-28T18:57:36;17.17;;;11.77;;
10661;SDS011;5379;51.034;7.006;2024-02-28T19:00:03;20.70;;;13.10;;
10661;SDS011;5379;51.034;7.006;2024-02-28T19:02:32;15.00;;;11.90;;
10661;SDS011;5379;51.034;7.006;2024-02-28T19:04:59;25.47;;;13.30;;
10661;SDS011;5379;51.034;7.006;2024-02-28T19:07:25;16.93;;;12.63;;
10661;SDS011;5379;51.034;7.006;2024-02-28T19:09:54;18.37;;;12.03;;
10661;SDS011;5379;51.034;7.006;2024-02-28T19:12:20;16.57;;;12.20;;
10661;SDS011;5379;51.034;7.006;2024-02-28T19:14:47;19.70;;;12.50;;
10661;SDS011;5379;51.034;7.006;2024-02-28T19:17:14;16.80;;;11.97;;